createdAt,value
2022-08-27T00:02:16.086Z,96298.38
2022-08-27T00:04:43.709Z,96301.19
2022-08-27T00:07:11.368Z,96298.34
2022-08-27T00:09:38.259Z,96299.28
2022-08-27T00:12:05.475Z,96295.09
2022-08-27T00:14:32.360Z,96298.16
2022-08-27T00:16:58.304Z,96294.72
2022-08-27T00:19:24.620Z,96292.25
2022-08-27T00:21:50.910Z,96290.28
2022-08-27T00:24:16.797Z,96293.81
2022-08-27T00:26:43.541Z,96291.75
2022-08-27T00:29:09.611Z,96297.56
2022-08-27T00:31:35.793Z,96292.75
2022-08-27T00:34:01.643Z,96294.31
2022-08-27T00:36:27.656Z,96293.34
2022-08-27T00:38:54.037Z,96293.50
2022-08-27T00:41:20.459Z,96294.97
2022-08-27T00:43:56.645Z,96290.22
2022-08-27T00:46:50.078Z,96293.34
2022-08-27T00:49:47.101Z,96295.22
2022-08-27T00:52:36.085Z,96282.53
2022-08-27T00:55:08.114Z,96281.91
2022-08-27T00:57:38.116Z,96286.09
2022-08-27T01:00:08.620Z,96284.28
2022-08-27T01:02:34.569Z,96295.91
2022-08-27T01:05:06.911Z,96294.59
2022-08-27T01:07:43.443Z,96298.50
2022-08-27T01:10:17.103Z,96296.78
2022-08-27T01:12:43.461Z,96288.63
2022-08-27T01:15:16.954Z,96295.78
2022-08-27T01:17:47.246Z,96291.19
2022-08-27T01:20:19.593Z,96295.13
2022-08-27T01:23:15.746Z,96298.38
2022-08-27T01:25:42.705Z,96295.59
2022-08-27T01:28:09.886Z,96297.94
2022-08-27T01:30:36.409Z,96300.97
2022-08-27T01:33:14.164Z,96298.84
2022-08-27T01:35:42.220Z,96298.84
2022-08-27T01:38:18.301Z,96289.09
2022-08-27T01:40:55.569Z,96284.25
2022-08-27T01:43:22.009Z,96277.09
2022-08-27T01:45:50.040Z,96281.56
2022-08-27T01:48:20.860Z,96276.72
2022-08-27T01:50:47.629Z,96279.06
2022-08-27T01:53:17.309Z,96280.69
2022-08-27T01:55:48.200Z,96284.69
2022-08-27T01:58:15.473Z,96284.38
2022-08-27T02:00:45.349Z,96271.25
2022-08-27T02:03:12.110Z,96280.91
2022-08-27T02:05:44.770Z,96273.75
2022-08-27T02:08:15.165Z,96272.44
2022-08-27T02:10:42.825Z,96274.97
2022-08-27T02:13:08.878Z,96270.50
2022-08-27T02:15:36.586Z,96270.94
2022-08-27T02:18:03.472Z,96266.63
2022-08-27T02:20:30.559Z,96276.41
2022-08-27T02:22:57.216Z,96273.09
2022-08-27T02:25:23.101Z,96276.41
2022-08-27T02:27:49.980Z,96274.19
2022-08-27T02:30:20.924Z,96272.19
2022-08-27T02:32:47.164Z,96273.78
2022-08-27T02:35:15.359Z,96273.16
2022-08-27T02:37:41.839Z,96269.13
2022-08-27T02:40:08.953Z,96275.09
2022-08-27T02:42:34.865Z,96275.47
2022-08-27T02:45:00.689Z,96276.09
2022-08-27T02:47:27.425Z,96274.34
2022-08-27T02:49:53.251Z,96274.81
2022-08-27T02:52:24.813Z,96272.44
2022-08-27T02:54:50.909Z,96273.75
2022-08-27T02:57:17.561Z,96272.53
2022-08-27T02:59:43.324Z,96266.25
2022-08-27T03:02:09.960Z,96270.72
2022-08-27T03:04:36.429Z,96270.25
2022-08-27T03:07:02.471Z,96270.13
2022-08-27T03:09:28.350Z,96272.91
2022-08-27T03:11:54.441Z,96267.44
2022-08-27T03:14:20.306Z,96277.34
2022-08-27T03:16:46.100Z,96271.16
2022-08-27T03:19:11.944Z,96265.41
2022-08-27T03:21:38.561Z,96270.69
2022-08-27T03:24:11.271Z,96269.03
2022-08-27T03:26:40.743Z,96278.25
2022-08-27T03:29:07.140Z,96277.50
2022-08-27T03:31:33.445Z,96273.88
2022-08-27T03:34:02.993Z,96278.72
2022-08-27T03:36:30.218Z,96276.78
2022-08-27T03:38:56.793Z,96281.31
2022-08-27T03:41:24.355Z,96281.19
2022-08-27T03:44:11.247Z,96279.16
2022-08-27T03:46:44.275Z,96283.97
2022-08-27T03:49:10.172Z,96284.53
2022-08-27T03:51:39.141Z,96284.97
2022-08-27T03:54:05.012Z,96282.88
2022-08-27T03:56:33.187Z,96279.31
2022-08-27T03:58:59.024Z,96284.00
2022-08-27T04:01:25.162Z,96284.84
2022-08-27T04:03:51.475Z,96278.13
2022-08-27T04:06:17.570Z,96273.72
2022-08-27T04:08:43.364Z,96276.69
2022-08-27T04:11:09.648Z,96275.44
2022-08-27T04:13:36.018Z,96268.44
2022-08-27T04:16:04.643Z,96276.06
2022-08-27T04:18:30.468Z,96281.66
2022-08-27T04:20:57.174Z,96275.47
2022-08-27T04:23:23.327Z,96276.56
2022-08-27T04:25:49.353Z,96271.69
2022-08-27T04:28:15.853Z,96275.22
2022-08-27T04:30:44.772Z,96272.09
2022-08-27T04:33:13.238Z,96274.47
2022-08-27T04:35:39.780Z,96278.56
2022-08-27T04:38:05.858Z,96278.75
2022-08-27T04:40:51.223Z,96273.91
2022-08-27T04:43:18.962Z,96274.16
2022-08-27T04:45:46.847Z,96280.47
2022-08-27T04:48:15.259Z,96281.72
2022-08-27T04:50:42.813Z,96281.50
2022-08-27T04:53:09.896Z,96286.03
2022-08-27T04:55:47.980Z,96281.31
2022-08-27T04:58:14.791Z,96289.81
2022-08-27T05:00:47.720Z,96287.31
2022-08-27T05:03:17.258Z,96287.81
2022-08-27T05:05:43.842Z,96286.56
2022-08-27T05:08:13.467Z,96291.31
2022-08-27T05:10:45.741Z,96287.19
2022-08-27T05:13:11.968Z,96288.69
2022-08-27T05:15:39.358Z,96291.28
2022-08-27T05:18:06.922Z,96285.78
2022-08-27T05:20:33.613Z,96288.25
2022-08-27T05:22:59.924Z,96292.09
2022-08-27T05:25:26.960Z,96292.69
2022-08-27T05:27:52.793Z,96297.81
2022-08-27T05:30:18.763Z,96284.44
2022-08-27T05:32:44.643Z,96294.56
2022-08-27T05:35:13.998Z,96299.09
2022-08-27T05:37:42.112Z,96291.66
2022-08-27T05:40:08.839Z,96292.28
2022-08-27T05:42:34.785Z,96308.03
2022-08-27T05:45:00.661Z,96312.78
2022-08-27T05:47:26.721Z,96307.97
2022-08-27T05:49:53.458Z,96311.13
2022-08-27T05:52:20.758Z,96306.66
2022-08-27T05:54:47.213Z,96307.38
2022-08-27T05:57:13.198Z,96305.28
2022-08-27T05:59:57.875Z,96308.53
2022-08-27T06:02:24.150Z,96310.72
2022-08-27T06:04:50.145Z,96311.06
2022-08-27T06:07:16.008Z,96307.03
2022-08-27T06:09:42.435Z,96312.38
2022-08-27T06:12:08.804Z,96309.97
2022-08-27T06:14:36.088Z,96318.78
2022-08-27T06:17:02.513Z,96316.91
2022-08-27T06:19:28.458Z,96325.38
2022-08-27T06:22:01.048Z,96320.38
2022-08-27T06:24:38.549Z,96325.69
2022-08-27T06:27:04.650Z,96327.25
2022-08-27T06:29:30.487Z,96325.88
2022-08-27T06:31:56.299Z,96324.03
2022-08-27T06:34:22.099Z,96326.69
2022-08-27T06:36:47.914Z,96325.91
2022-08-27T06:39:14.900Z,96326.91
2022-08-27T06:41:42.833Z,96332.72
2022-08-27T06:44:09.181Z,96330.91
2022-08-27T06:46:36.186Z,96331.44
2022-08-27T06:49:02.515Z,96331.25
2022-08-27T06:51:34.125Z,96331.81
2022-08-27T06:54:06.172Z,96340.66
2022-08-27T06:56:32.592Z,96332.38
2022-08-27T06:59:00.949Z,96337.34
2022-08-27T07:01:31.028Z,96333.09
2022-08-27T07:03:59.217Z,96328.34
2022-08-27T07:06:27.073Z,96327.50
2022-08-27T07:08:53.483Z,96322.47
2022-08-27T07:11:20.485Z,96324.88
2022-08-27T07:13:47.682Z,96328.88
2022-08-27T07:16:18.292Z,96328.88
2022-08-27T07:18:45.874Z,96329.94
2022-08-27T07:21:12.088Z,96325.63
2022-08-27T07:23:38.832Z,96326.16
2022-08-27T07:26:09.212Z,96329.84
2022-08-27T07:28:37.337Z,96327.97
2022-08-27T07:31:05.103Z,96328.34
2022-08-27T07:33:31.300Z,96324.00
2022-08-27T07:35:57.128Z,96329.84
2022-08-27T07:38:23.172Z,96326.09
2022-08-27T07:40:49.012Z,96326.91
2022-08-27T07:43:33.213Z,96329.75
2022-08-27T07:46:01.360Z,96325.47
2022-08-27T07:48:27.334Z,96333.97
2022-08-27T07:50:53.506Z,96335.31
2022-08-27T07:53:20.370Z,96340.16
2022-08-27T07:55:46.425Z,96343.16
2022-08-27T07:58:16.782Z,96342.63
2022-08-27T08:00:45.079Z,96343.69
2022-08-27T08:03:12.538Z,96346.84
2022-08-27T08:05:43.139Z,96340.25
2022-08-27T08:08:10.939Z,96346.63
2022-08-27T08:10:38.707Z,96346.06
2022-08-27T08:13:05.989Z,96356.16
2022-08-27T08:15:32.180Z,96360.38
2022-08-27T08:17:58.433Z,96361.16
2022-08-27T08:20:41.551Z,96362.34
2022-08-27T08:23:10.597Z,96370.38
2022-08-27T08:25:38.545Z,96366.28
2022-08-27T08:28:04.703Z,96370.56
2022-08-27T08:30:33.154Z,96370.75
2022-08-27T08:33:01.428Z,96374.75
2022-08-27T08:35:27.268Z,96377.41
2022-08-27T08:38:00.942Z,96377.19
2022-08-27T08:40:38.315Z,96373.66
2022-08-27T08:43:07.470Z,96375.53
2022-08-27T08:45:37.847Z,96377.91
2022-08-27T08:48:08.998Z,96379.25
2022-08-27T08:50:54.754Z,96380.72
2022-08-27T08:53:26.394Z,96384.69
2022-08-27T08:56:00.783Z,96380.66
2022-08-27T08:58:37.563Z,96387.03
2022-08-27T09:01:06.648Z,96381.44
2022-08-27T09:03:35.593Z,96392.44
2022-08-27T09:06:03.137Z,96387.81
2022-08-27T09:08:42.429Z,96396.56
2022-08-27T09:11:08.471Z,96390.75
2022-08-27T09:13:39.914Z,96390.41
2022-08-27T09:16:06.724Z,96388.91
2022-08-27T09:18:36.390Z,96393.72
2022-08-27T09:21:27.690Z,96403.53
2022-08-27T09:24:23.398Z,96404.03
2022-08-27T09:26:49.302Z,96401.53
2022-08-27T09:29:19.893Z,96391.06
2022-08-27T09:31:51.860Z,96402.84
2022-08-27T09:34:17.680Z,96397.06
2022-08-27T09:36:59.893Z,96405.38
2022-08-27T09:39:32.428Z,96403.97
2022-08-27T09:41:58.627Z,96397.25
2022-08-27T09:44:24.838Z,96401.13
2022-08-27T09:46:59.877Z,96395.50
2022-08-27T09:49:26.263Z,96399.91
2022-08-27T09:51:53.153Z,96395.91
2022-08-27T09:54:31.838Z,96405.19
2022-08-27T09:56:58.432Z,96400.72
2022-08-27T09:59:49.217Z,96398.19
2022-08-27T10:02:21.295Z,96401.44
2022-08-27T10:04:53.532Z,96411.25
2022-08-27T10:07:31.011Z,96409.09
2022-08-27T10:10:00.848Z,96403.06
2022-08-27T10:12:41.368Z,96405.69
2022-08-27T10:15:09.247Z,96401.66
2022-08-27T10:17:47.124Z,96411.06
2022-08-27T10:20:37.669Z,96418.75
2022-08-27T10:23:19.263Z,96414.25
2022-08-27T10:26:16.178Z,96419.84
2022-08-27T10:29:03.188Z,96414.56
2022-08-27T10:31:56.709Z,96415.34
2022-08-27T10:34:47.173Z,96425.75
2022-08-27T10:37:40.182Z,96422.78
2022-08-27T10:40:17.638Z,96425.25
2022-08-27T10:42:52.068Z,96422.03
2022-08-27T10:45:45.374Z,96420.69
2022-08-27T10:48:33.851Z,96415.97
2022-08-27T10:51:23.351Z,96422.59
2022-08-27T10:53:58.345Z,96421.56
2022-08-27T10:57:08.397Z,96415.69
2022-08-27T10:59:56.384Z,96424.19
2022-08-27T11:02:36.827Z,96424.75
2022-08-27T11:05:20.138Z,96421.25
2022-08-27T11:07:58.864Z,96417.75
2022-08-27T11:10:33.326Z,96416.75
2022-08-27T11:13:05.363Z,96422.88
2022-08-27T11:15:35.907Z,96427.38
2022-08-27T11:18:16.406Z,96430.06
2022-08-27T11:21:11.384Z,96425.50
2022-08-27T11:23:43.481Z,96428.44
2022-08-27T11:26:09.451Z,96427.91
2022-08-27T11:28:46.574Z,96427.38
2022-08-27T11:31:28.993Z,96429.91
2022-08-27T11:34:14.958Z,96427.44
2022-08-27T11:37:03.497Z,96424.41
2022-08-27T11:39:38.067Z,96426.03
2022-08-27T11:42:18.383Z,96424.78
2022-08-27T11:44:47.832Z,96427.72
2022-08-27T11:47:25.420Z,96417.53
2022-08-27T11:49:56.196Z,96422.59
2022-08-27T11:52:53.212Z,96413.69
2022-08-27T11:55:19.031Z,96413.13
2022-08-27T11:57:46.437Z,96411.53
2022-08-27T12:00:24.538Z,96414.88
2022-08-27T12:03:01.485Z,96418.47
2022-08-27T12:05:38.920Z,96418.53
2022-08-27T12:08:28.292Z,96416.75
2022-08-27T12:11:08.396Z,96424.78
2022-08-27T12:14:11.606Z,96420.13
2022-08-27T12:17:04.162Z,96422.78
2022-08-27T12:20:02.616Z,96415.47
2022-08-27T12:23:05.510Z,96431.41
2022-08-27T12:25:31.756Z,96416.94
2022-08-27T12:28:02.555Z,96417.31
2022-08-27T12:30:35.148Z,96429.72
2022-08-27T12:33:29.572Z,96427.84
2022-08-27T12:35:58.400Z,96420.50
2022-08-27T12:38:44.407Z,96422.59
2022-08-27T12:41:43.837Z,96428.78
2022-08-27T12:44:14.133Z,96422.00
2022-08-27T12:46:49.550Z,96422.41
2022-08-27T12:49:37.882Z,96412.34
2022-08-27T12:52:31.716Z,96419.47
2022-08-27T12:55:12.772Z,96427.81
2022-08-27T12:57:57.447Z,96423.25
2022-08-27T13:00:26.512Z,96419.44
2022-08-27T13:03:07.847Z,96418.25
2022-08-27T13:05:42.288Z,96419.41
2022-08-27T13:08:33.358Z,96415.69
2022-08-27T13:11:33.172Z,96410.94
2022-08-27T13:14:10.935Z,96410.47
2022-08-27T13:16:41.707Z,96415.84
2022-08-27T13:19:19.976Z,96418.16
2022-08-27T13:21:50.255Z,96407.03
2022-08-27T13:24:34.209Z,96408.28
2022-08-27T13:27:03.595Z,96405.22
2022-08-27T13:29:30.508Z,96411.69
2022-08-27T13:31:57.866Z,96403.22
2022-08-27T13:34:26.636Z,96406.94
2022-08-27T13:37:21.101Z,96402.31
2022-08-27T13:39:52.321Z,96407.19
2022-08-27T13:42:20.205Z,96398.47
2022-08-27T13:44:48.172Z,96397.75
2022-08-27T13:47:24.078Z,96396.25
2022-08-27T13:49:51.217Z,96383.34
2022-08-27T13:52:28.432Z,96393.09
2022-08-27T13:55:07.015Z,96395.13
2022-08-27T13:57:54.342Z,96393.72
2022-08-27T14:00:31.115Z,96390.56
2022-08-27T14:03:00.188Z,96390.56
2022-08-27T14:05:28.717Z,96388.06
2022-08-27T14:07:56.166Z,96394.41
2022-08-27T14:10:38.950Z,96388.59
2022-08-27T14:13:43.534Z,96397.03
2022-08-27T14:16:22.225Z,96399.41
2022-08-27T14:19:02.741Z,96397.44
2022-08-27T14:21:29.190Z,96402.56
2022-08-27T14:23:55.387Z,96402.53
2022-08-27T14:26:21.266Z,96410.78
2022-08-27T14:28:47.576Z,96403.78
2022-08-27T14:31:14.207Z,96407.31
2022-08-27T14:33:40.121Z,96403.72
2022-08-27T14:36:07.291Z,96405.31
2022-08-27T14:38:36.695Z,96406.31
2022-08-27T14:41:02.710Z,96403.34
2022-08-27T14:43:34.011Z,96404.22
2022-08-27T14:46:00.694Z,96399.09
2022-08-27T14:48:31.767Z,96392.16
2022-08-27T14:51:01.742Z,96397.78
2022-08-27T14:53:28.362Z,96396.09
2022-08-27T14:55:58.101Z,96394.91
2022-08-27T14:58:24.492Z,96389.91
2022-08-27T15:00:51.467Z,96397.16
2022-08-27T15:03:19.093Z,96403.38
2022-08-27T15:05:44.954Z,96402.59
2022-08-27T15:08:15.066Z,96400.41
2022-08-27T15:10:42.113Z,96407.34
2022-08-27T15:13:10.495Z,96406.94
2022-08-27T15:15:38.010Z,96409.19
2022-08-27T15:18:04.838Z,96403.19
2022-08-27T15:20:31.376Z,96404.72
2022-08-27T15:22:58.053Z,96411.47
2022-08-27T15:25:24.518Z,96404.16
2022-08-27T15:27:51.412Z,96407.88
2022-08-27T15:30:24.453Z,96399.63
2022-08-27T15:32:51.133Z,96407.31
2022-08-27T15:35:22.158Z,96409.81
2022-08-27T15:37:48.384Z,96404.34
2022-08-27T15:40:17.676Z,96405.13
2022-08-27T15:42:44.920Z,96403.00
2022-08-27T15:45:12.347Z,96402.91
2022-08-27T15:47:38.588Z,96401.19
2022-08-27T15:50:05.836Z,96408.34
2022-08-27T15:52:40.924Z,96400.81
2022-08-27T15:55:18.069Z,96403.00
2022-08-27T15:57:43.900Z,96408.41
2022-08-27T16:00:10.382Z,96408.59
2022-08-27T16:02:36.379Z,96405.84
2022-08-27T16:05:02.352Z,96409.97
2022-08-27T16:07:28.230Z,96408.44
2022-08-27T16:09:54.234Z,96404.78
2022-08-27T16:12:22.431Z,96416.81
2022-08-27T16:14:54.420Z,96411.09
2022-08-27T16:17:20.526Z,96409.81
2022-08-27T16:19:46.531Z,96404.81
2022-08-27T16:22:12.416Z,96410.75
2022-08-27T16:24:38.259Z,96408.47
2022-08-27T16:27:04.097Z,96414.56
2022-08-27T16:29:29.985Z,96410.34
2022-08-27T16:31:59.261Z,96424.47
2022-08-27T16:34:29.027Z,96417.88
2022-08-27T16:36:55.620Z,96413.13
2022-08-27T16:39:21.825Z,96416.28
2022-08-27T16:41:47.826Z,96410.94
2022-08-27T16:44:15.043Z,96409.41
2022-08-27T16:46:40.969Z,96406.44
2022-08-27T16:49:25.486Z,96403.13
2022-08-27T16:51:51.611Z,96399.81
2022-08-27T16:54:18.134Z,96398.66
2022-08-27T16:56:46.227Z,96395.88
2022-08-27T16:59:12.400Z,96401.25
2022-08-27T17:01:41.796Z,96398.91
2022-08-27T17:04:16.125Z,96401.56
2022-08-27T17:06:50.781Z,96398.13
2022-08-27T17:09:17.869Z,96401.25
2022-08-27T17:11:54.924Z,96397.72
2022-08-27T17:14:20.889Z,96402.38
2022-08-27T17:16:46.748Z,96402.09
2022-08-27T17:19:17.030Z,96404.78
2022-08-27T17:21:45.095Z,96403.00
2022-08-27T17:24:12.557Z,96411.09
2022-08-27T17:26:38.917Z,96403.38
2022-08-27T17:29:04.934Z,96408.47
2022-08-27T17:31:34.985Z,96412.19
2022-08-27T17:34:01.294Z,96410.22
2022-08-27T17:36:29.413Z,96414.28
2022-08-27T17:38:56.328Z,96411.69
2022-08-27T17:41:40.803Z,96419.47
2022-08-27T17:44:18.857Z,96417.66
2022-08-27T17:46:45.069Z,96423.22
2022-08-27T17:49:10.970Z,96417.56
2022-08-27T17:51:36.993Z,96417.56
2022-08-27T17:54:05.126Z,96420.47
2022-08-27T17:56:30.973Z,96428.09
2022-08-27T17:58:57.151Z,96425.88
2022-08-27T18:01:29.417Z,96436.63
2022-08-27T18:03:57.235Z,96431.50
2022-08-27T18:06:24.908Z,96433.09
2022-08-27T18:08:50.967Z,96434.50
2022-08-27T18:11:17.538Z,96435.38
2022-08-27T18:13:47.330Z,96442.19
2022-08-27T18:16:13.181Z,96441.09
2022-08-27T18:18:39.015Z,96441.03
2022-08-27T18:21:07.651Z,96442.91
2022-08-27T18:23:33.537Z,96443.81
2022-08-27T18:25:59.505Z,96449.09
2022-08-27T18:28:27.958Z,96450.88
2022-08-27T18:30:54.296Z,96447.47
2022-08-27T18:33:20.222Z,96450.97
2022-08-27T18:35:47.421Z,96454.19
2022-08-27T18:38:13.513Z,96453.72
2022-08-27T18:40:43.859Z,96459.91
2022-08-27T18:43:10.100Z,96449.50
2022-08-27T18:45:36.963Z,96452.63
2022-08-27T18:48:11.427Z,96463.09
2022-08-27T18:50:43.556Z,96455.69
2022-08-27T18:53:09.430Z,96456.16
2022-08-27T18:55:35.664Z,96455.00
2022-08-27T18:58:01.642Z,96453.56
2022-08-27T19:00:28.297Z,96454.56
2022-08-27T19:02:54.410Z,96456.69
2022-08-27T19:05:24.340Z,96462.03
2022-08-27T19:07:50.359Z,96461.44
2022-08-27T19:10:16.392Z,96466.91
2022-08-27T19:12:42.511Z,96468.75
2022-08-27T19:15:10.799Z,96464.97
2022-08-27T19:17:37.777Z,96470.78
2022-08-27T19:20:05.590Z,96464.16
2022-08-27T19:22:32.044Z,96467.25
2022-08-27T19:24:58.886Z,96468.91
2022-08-27T19:27:26.800Z,96459.06
2022-08-27T19:29:53.103Z,96473.78
2022-08-27T19:32:19.939Z,96476.47
2022-08-27T19:34:45.989Z,96464.69
2022-08-27T19:37:18.244Z,96471.19
2022-08-27T19:39:44.716Z,96472.25
2022-08-27T19:42:10.980Z,96472.72
2022-08-27T19:44:37.054Z,96473.81
2022-08-27T19:47:03.121Z,96473.06
2022-08-27T19:49:29.082Z,96484.03
2022-08-27T19:51:54.980Z,96478.72
2022-08-27T19:54:21.004Z,96480.09
2022-08-27T19:56:46.886Z,96485.72
2022-08-27T19:59:21.030Z,96482.06
2022-08-27T20:01:47.794Z,96482.34
2022-08-27T20:04:13.729Z,96482.94
2022-08-27T20:06:39.661Z,96488.00
2022-08-27T20:09:07.666Z,96477.81
2022-08-27T20:11:33.721Z,96482.38
2022-08-27T20:13:59.601Z,96481.56
2022-08-27T20:16:27.163Z,96485.03
2022-08-27T20:18:56.363Z,96490.38
2022-08-27T20:21:24.430Z,96486.97
2022-08-27T20:23:50.621Z,96488.31
2022-08-27T20:26:16.449Z,96498.66
2022-08-27T20:28:42.645Z,96490.72
2022-08-27T20:31:08.684Z,96486.47
2022-08-27T20:33:34.509Z,96496.25
2022-08-27T20:36:02.132Z,96487.69
2022-08-27T20:38:28.088Z,96494.41
2022-08-27T20:40:53.973Z,96491.16
2022-08-27T20:43:19.789Z,96490.09
2022-08-27T20:45:46.161Z,96488.25
2022-08-27T20:48:12.369Z,96491.94
2022-08-27T20:50:38.364Z,96497.13
2022-08-27T20:53:04.295Z,96495.75
2022-08-27T20:55:30.214Z,96493.56
2022-08-27T20:58:15.118Z,96502.91
2022-08-27T21:00:42.250Z,96497.88
2022-08-27T21:03:10.656Z,96496.50
2022-08-27T21:05:37.708Z,96499.72
2022-08-27T21:08:05.365Z,96495.66
2022-08-27T21:10:32.170Z,96498.28
2022-08-27T21:12:58.079Z,96493.81
2022-08-27T21:15:24.752Z,96493.75
2022-08-27T21:17:50.715Z,96494.06
2022-08-27T21:20:17.075Z,96491.34
2022-08-27T21:22:43.510Z,96498.00
2022-08-27T21:25:11.828Z,96495.63
2022-08-27T21:27:39.121Z,96490.50
2022-08-27T21:30:06.771Z,96496.91
2022-08-27T21:32:33.317Z,96499.13
2022-08-27T21:34:59.161Z,96501.31
2022-08-27T21:37:24.982Z,96503.97
2022-08-27T21:39:50.844Z,96505.06
2022-08-27T21:42:16.730Z,96505.88
2022-08-27T21:44:42.757Z,96503.47
2022-08-27T21:47:09.439Z,96502.34
2022-08-27T21:49:35.306Z,96510.34
2022-08-27T21:52:05.145Z,96498.59
2022-08-27T21:54:33.646Z,96495.97
2022-08-27T21:57:00.005Z,96505.34
2022-08-27T21:59:29.917Z,96506.09
2022-08-27T22:02:00.950Z,96502.97
2022-08-27T22:04:27.468Z,96502.09
2022-08-27T22:06:57.004Z,96497.03
2022-08-27T22:09:23.036Z,96500.25
2022-08-27T22:11:48.844Z,96497.56
2022-08-27T22:14:15.201Z,96498.88
2022-08-27T22:16:41.410Z,96504.41
2022-08-27T22:19:07.528Z,96506.84
2022-08-27T22:21:33.744Z,96503.09
2022-08-27T22:23:59.820Z,96504.91
2022-08-27T22:26:25.763Z,96503.03
2022-08-27T22:28:51.591Z,96498.78
2022-08-27T22:31:18.092Z,96502.25
2022-08-27T22:33:44.076Z,96499.94
2022-08-27T22:36:10.056Z,96508.44
2022-08-27T22:38:35.902Z,96499.13
2022-08-27T22:41:01.937Z,96496.19
2022-08-27T22:43:27.928Z,96502.91
2022-08-27T22:45:53.765Z,96502.63
2022-08-27T22:48:19.737Z,96506.28
2022-08-27T22:50:45.753Z,96508.38
2022-08-27T22:53:11.628Z,96511.31
2022-08-27T22:55:37.670Z,96512.88
2022-08-27T22:58:04.019Z,96511.81
2022-08-27T23:00:33.454Z,96510.53
2022-08-27T23:03:01.048Z,96506.78
2022-08-27T23:05:27.859Z,96504.47
2022-08-27T23:07:58.238Z,96507.13
2022-08-27T23:10:24.171Z,96508.44
2022-08-27T23:12:52.862Z,96510.03
2022-08-27T23:15:19.978Z,96497.78
2022-08-27T23:17:46.083Z,96500.47
2022-08-27T23:20:12.703Z,96499.38
2022-08-27T23:22:39.048Z,96510.38
2022-08-27T23:25:25.628Z,96505.03
2022-08-27T23:27:51.896Z,96502.66
2022-08-27T23:30:17.773Z,96491.66
2022-08-27T23:32:46.484Z,96490.63
2022-08-27T23:35:16.368Z,96490.66
2022-08-27T23:37:42.228Z,96488.56
2022-08-27T23:40:11.116Z,96491.50
2022-08-27T23:42:38.319Z,96492.53
2022-08-27T23:45:05.113Z,96494.69
2022-08-27T23:47:30.994Z,96495.75
2022-08-27T23:49:56.895Z,96496.84
2022-08-27T23:52:22.764Z,96505.38
2022-08-27T23:54:48.572Z,96503.25
2022-08-27T23:57:14.989Z,96493.13
2022-08-27T23:59:41.222Z,96500.59
